createdAt,value
2022-07-26T00:01:58.502Z,0.60
2022-07-26T00:04:26.309Z,0.75
2022-07-26T00:06:54.395Z,0.85
2022-07-26T00:09:21.979Z,0.70
2022-07-26T00:11:49.595Z,0.50
2022-07-26T00:14:17.356Z,0.90
2022-07-26T00:16:45.423Z,0.85
2022-07-26T00:19:13.153Z,0.95
2022-07-26T00:21:41.010Z,0.75
2022-07-26T00:24:09.344Z,0.85
2022-07-26T00:26:37.345Z,0.88
2022-07-26T00:29:06.206Z,0.68
2022-07-26T00:31:34.226Z,0.73
2022-07-26T00:34:01.843Z,1.05
2022-07-26T00:36:29.895Z,0.80
2022-07-26T00:38:57.527Z,1.00
2022-07-26T00:41:25.126Z,0.88
2022-07-26T00:43:57.815Z,1.02
2022-07-26T00:46:26.037Z,1.40
2022-07-26T00:48:53.880Z,0.82
2022-07-26T00:51:22.075Z,0.90
2022-07-26T00:53:50.339Z,0.80
2022-07-26T00:56:18.395Z,0.80
2022-07-26T00:58:45.938Z,0.90
2022-07-26T01:01:13.531Z,0.80
2022-07-26T01:03:42.208Z,1.40
2022-07-26T01:06:10.164Z,1.10
2022-07-26T01:08:38.049Z,1.05
2022-07-26T01:11:05.800Z,0.90
2022-07-26T01:13:35.441Z,0.88
2022-07-26T01:16:04.084Z,1.30
2022-07-26T01:18:31.665Z,0.90
2022-07-26T01:21:09.003Z,1.30
2022-07-26T01:23:41.190Z,1.00
2022-07-26T01:26:08.805Z,0.88
2022-07-26T01:28:40.498Z,1.33
2022-07-26T01:31:08.582Z,1.10
2022-07-26T01:33:36.160Z,0.80
2022-07-26T01:36:04.015Z,1.05
2022-07-26T01:38:31.560Z,1.27
2022-07-26T01:40:59.265Z,0.85
2022-07-26T01:43:27.020Z,0.80
2022-07-26T01:45:55.616Z,0.77
2022-07-26T01:48:23.412Z,0.80
2022-07-26T01:50:51.108Z,0.95
2022-07-26T01:53:18.659Z,0.80
2022-07-26T01:55:46.266Z,0.70
2022-07-26T01:58:14.146Z,0.77
2022-07-26T02:00:41.745Z,0.82
2022-07-26T02:03:09.477Z,1.13
2022-07-26T02:05:37.329Z,0.98
2022-07-26T02:08:05.085Z,0.90
2022-07-26T02:10:56.516Z,0.90
2022-07-26T02:13:24.758Z,1.13
2022-07-26T02:15:52.565Z,1.00
2022-07-26T02:18:20.215Z,0.68
2022-07-26T02:20:47.725Z,1.10
2022-07-26T02:23:15.271Z,0.70
2022-07-26T02:25:42.774Z,0.70
2022-07-26T02:28:10.445Z,1.00
2022-07-26T02:30:38.352Z,1.00
2022-07-26T02:33:07.451Z,0.80
2022-07-26T02:35:35.451Z,0.90
2022-07-26T02:38:08.978Z,0.70
2022-07-26T02:40:39.308Z,1.20
2022-07-26T02:43:08.287Z,1.20
2022-07-26T02:45:36.438Z,0.93
2022-07-26T02:48:04.909Z,0.80
2022-07-26T02:50:33.186Z,1.05
2022-07-26T02:53:00.924Z,1.20
2022-07-26T02:55:28.646Z,1.00
2022-07-26T02:57:56.215Z,0.70
2022-07-26T03:00:26.521Z,0.80
2022-07-26T03:02:54.301Z,0.90
2022-07-26T03:05:22.357Z,0.98
2022-07-26T03:07:50.797Z,0.77
2022-07-26T03:10:18.463Z,1.27
2022-07-26T03:12:46.088Z,1.00
2022-07-26T03:15:13.642Z,1.15
2022-07-26T03:17:41.261Z,1.00
2022-07-26T03:20:09.589Z,1.00
2022-07-26T03:22:37.151Z,0.93
2022-07-26T03:25:04.882Z,0.98
2022-07-26T03:27:32.476Z,0.70
2022-07-26T03:30:00.112Z,0.73
2022-07-26T03:32:27.762Z,0.93
2022-07-26T03:34:55.267Z,1.00
2022-07-26T03:37:23.439Z,0.88
2022-07-26T03:39:50.996Z,1.00
2022-07-26T03:42:18.630Z,0.80
2022-07-26T03:44:46.226Z,1.00
2022-07-26T03:47:13.926Z,1.10
2022-07-26T03:49:41.549Z,0.82
2022-07-26T03:52:10.902Z,1.23
2022-07-26T03:54:38.529Z,0.75
2022-07-26T03:57:06.059Z,1.15
2022-07-26T03:59:33.762Z,0.80
2022-07-26T04:02:01.624Z,0.90
2022-07-26T04:04:29.318Z,0.80
2022-07-26T04:06:57.022Z,0.90
2022-07-26T04:09:24.600Z,0.98
2022-07-26T04:11:52.079Z,0.68
2022-07-26T04:14:19.796Z,0.80
2022-07-26T04:16:47.814Z,0.80
2022-07-26T04:19:15.500Z,0.80
2022-07-26T04:21:43.026Z,0.88
2022-07-26T04:24:10.950Z,0.70
2022-07-26T04:26:38.686Z,0.98
2022-07-26T04:29:06.241Z,0.98
2022-07-26T04:31:36.441Z,0.90
2022-07-26T04:34:04.432Z,0.85
2022-07-26T04:36:32.329Z,0.95
2022-07-26T04:38:59.898Z,0.70
2022-07-26T04:41:27.855Z,0.90
2022-07-26T04:43:56.316Z,1.30
2022-07-26T04:46:25.343Z,0.60
2022-07-26T04:48:53.138Z,0.65
2022-07-26T04:51:21.005Z,0.80
2022-07-26T04:53:48.605Z,1.15
2022-07-26T04:56:16.102Z,0.80
2022-07-26T04:58:43.719Z,1.10
2022-07-26T05:01:11.467Z,0.80
2022-07-26T05:03:39.711Z,1.00
2022-07-26T05:06:07.624Z,0.80
2022-07-26T05:08:35.233Z,0.90
2022-07-26T05:11:04.207Z,0.77
2022-07-26T05:13:31.845Z,0.98
2022-07-26T05:16:00.489Z,0.73
2022-07-26T05:18:31.629Z,0.95
2022-07-26T05:20:59.678Z,0.90
2022-07-26T05:23:27.259Z,0.90
2022-07-26T05:25:55.465Z,0.93
2022-07-26T05:28:23.068Z,1.00
2022-07-26T05:30:51.017Z,1.08
2022-07-26T05:33:18.786Z,0.90
2022-07-26T05:35:46.399Z,1.13
2022-07-26T05:38:13.926Z,1.00
2022-07-26T05:40:41.512Z,0.90
2022-07-26T05:43:09.148Z,1.08
2022-07-26T05:45:36.725Z,1.10
2022-07-26T05:48:04.448Z,1.00
2022-07-26T05:50:33.090Z,1.33
2022-07-26T05:53:00.603Z,1.20
2022-07-26T05:55:28.211Z,1.30
2022-07-26T05:57:55.732Z,1.10
2022-07-26T06:00:23.283Z,0.93
2022-07-26T06:02:50.848Z,1.10
2022-07-26T06:05:18.572Z,1.00
2022-07-26T06:07:46.131Z,1.10
2022-07-26T06:10:13.736Z,1.20
2022-07-26T06:12:41.364Z,1.20
2022-07-26T06:15:14.797Z,1.00
2022-07-26T06:17:43.690Z,1.02
2022-07-26T06:20:11.563Z,1.17
2022-07-26T06:22:39.136Z,1.00
2022-07-26T06:25:07.365Z,1.30
2022-07-26T06:27:34.967Z,1.05
2022-07-26T06:30:02.542Z,1.00
2022-07-26T06:32:30.093Z,1.10
2022-07-26T06:34:57.616Z,1.10
2022-07-26T06:37:25.165Z,1.40
2022-07-26T06:39:53.086Z,1.10
2022-07-26T06:42:20.608Z,1.25
2022-07-26T06:44:48.130Z,1.38
2022-07-26T06:47:15.690Z,1.13
2022-07-26T06:49:44.852Z,1.40
2022-07-26T06:52:12.471Z,1.10
2022-07-26T06:54:40.026Z,1.10
2022-07-26T06:57:07.952Z,1.13
2022-07-26T06:59:35.695Z,1.30
2022-07-26T07:02:03.860Z,1.10
2022-07-26T07:04:32.798Z,1.20
2022-07-26T07:07:06.130Z,1.10
2022-07-26T07:09:35.040Z,1.42
2022-07-26T07:12:09.623Z,0.95
2022-07-26T07:14:39.217Z,1.17
2022-07-26T07:17:11.202Z,1.33
2022-07-26T07:19:40.710Z,1.30
2022-07-26T07:22:12.006Z,1.20
2022-07-26T07:24:41.293Z,1.10
2022-07-26T07:27:10.689Z,1.00
2022-07-26T07:29:41.439Z,1.20
2022-07-26T07:32:18.553Z,1.30
2022-07-26T07:34:48.626Z,1.33
2022-07-26T07:37:17.899Z,1.25
2022-07-26T07:39:48.801Z,1.00
2022-07-26T07:42:19.387Z,1.13
2022-07-26T07:44:48.685Z,1.00
2022-07-26T07:47:16.386Z,1.00
2022-07-26T07:49:43.873Z,1.20
2022-07-26T07:52:11.481Z,0.90
2022-07-26T07:54:39.645Z,1.10
2022-07-26T07:57:07.234Z,1.05
2022-07-26T07:59:39.036Z,1.10
2022-07-26T08:02:07.586Z,1.20
2022-07-26T08:04:35.752Z,1.08
2022-07-26T08:07:03.423Z,1.15
2022-07-26T08:09:30.958Z,1.08
2022-07-26T08:12:02.335Z,1.30
2022-07-26T08:14:30.121Z,1.23
2022-07-26T08:16:57.946Z,1.48
2022-07-26T08:19:27.582Z,1.02
2022-07-26T08:22:09.455Z,0.98
2022-07-26T08:24:37.064Z,1.00
2022-07-26T08:27:04.822Z,0.98
2022-07-26T08:29:32.458Z,1.08
2022-07-26T08:32:00.568Z,1.15
2022-07-26T08:34:28.173Z,1.10
2022-07-26T08:37:16.059Z,1.65
2022-07-26T08:39:43.462Z,1.10
2022-07-26T08:42:22.533Z,0.93
2022-07-26T08:44:51.243Z,1.15
2022-07-26T08:47:37.918Z,1.20
2022-07-26T08:50:08.586Z,1.05
2022-07-26T08:52:40.080Z,1.02
2022-07-26T08:55:08.210Z,1.10
2022-07-26T08:57:35.812Z,1.00
2022-07-26T09:00:29.835Z,0.63
2022-07-26T09:02:59.439Z,0.75
2022-07-26T09:05:35.979Z,0.80
2022-07-26T09:08:25.035Z,1.00
2022-07-26T09:10:52.799Z,1.10
2022-07-26T09:13:20.425Z,0.70
2022-07-26T09:15:48.038Z,1.10
2022-07-26T09:18:29.403Z,0.85
2022-07-26T09:20:57.558Z,0.88
2022-07-26T09:23:25.269Z,0.80
2022-07-26T09:25:54.975Z,0.73
2022-07-26T09:28:25.499Z,0.90
2022-07-26T09:31:04.479Z,0.70
2022-07-26T09:34:05.094Z,0.70
2022-07-26T09:36:33.163Z,0.80
2022-07-26T09:39:03.094Z,0.77
2022-07-26T09:41:34.908Z,0.80
2022-07-26T09:44:04.923Z,0.60
2022-07-26T09:46:35.467Z,0.90
2022-07-26T09:49:20.656Z,0.70
2022-07-26T09:51:50.506Z,0.50
2022-07-26T09:54:33.197Z,0.88
2022-07-26T09:57:01.634Z,0.50
2022-07-26T09:59:29.878Z,0.70
2022-07-26T10:01:58.969Z,0.73
2022-07-26T10:04:26.862Z,0.90
2022-07-26T10:06:55.861Z,0.60
2022-07-26T10:09:23.873Z,0.60
2022-07-26T10:11:58.134Z,1.08
2022-07-26T10:14:47.391Z,0.70
2022-07-26T10:17:31.494Z,0.70
2022-07-26T10:20:09.461Z,0.70
2022-07-26T10:22:50.673Z,0.73
2022-07-26T10:25:18.374Z,0.82
2022-07-26T10:27:54.465Z,0.68
2022-07-26T10:32:56.629Z,0.70
2022-07-26T10:35:40.872Z,0.95
2022-07-26T10:38:21.946Z,0.68
2022-07-26T10:41:03.468Z,0.85
2022-07-26T10:43:41.094Z,0.70
2022-07-26T10:46:25.055Z,0.80
2022-07-26T10:49:03.681Z,1.00
2022-07-26T10:51:39.647Z,0.75
2022-07-26T10:54:09.946Z,0.70
2022-07-26T10:56:38.567Z,0.82
2022-07-26T10:59:06.776Z,0.80
2022-07-26T11:01:38.686Z,0.52
2022-07-26T11:04:17.554Z,0.70
2022-07-26T11:06:48.541Z,0.65
2022-07-26T11:09:17.417Z,1.00
2022-07-26T11:11:47.082Z,0.70
2022-07-26T11:14:17.578Z,0.70
2022-07-26T11:16:50.050Z,0.70
2022-07-26T11:19:24.789Z,0.70
2022-07-26T11:22:01.464Z,0.60
2022-07-26T11:24:29.529Z,0.60
2022-07-26T11:27:04.327Z,0.82
2022-07-26T11:29:38.973Z,0.75
2022-07-26T11:32:28.792Z,0.70
2022-07-26T11:35:01.241Z,0.70
2022-07-26T11:37:29.911Z,0.93
2022-07-26T11:39:57.630Z,0.55
2022-07-26T11:42:25.486Z,0.73
2022-07-26T11:44:54.069Z,0.82
2022-07-26T11:47:25.261Z,0.70
2022-07-26T11:50:14.331Z,0.80
2022-07-26T11:52:42.465Z,0.52
2022-07-26T11:55:10.170Z,0.40
2022-07-26T11:57:38.187Z,0.40
2022-07-26T12:00:06.761Z,0.30
2022-07-26T12:02:40.657Z,0.60
2022-07-26T12:05:23.310Z,0.30
2022-07-26T12:08:02.947Z,0.40
2022-07-26T12:10:30.974Z,0.32
2022-07-26T12:13:15.865Z,0.30
2022-07-26T12:15:49.197Z,0.50
2022-07-26T12:18:30.825Z,0.47
2022-07-26T12:21:05.669Z,0.40
2022-07-26T12:23:49.276Z,0.70
2022-07-26T12:26:30.906Z,0.50
2022-07-26T12:29:19.014Z,0.75
2022-07-26T12:31:47.433Z,0.45
2022-07-26T12:34:21.152Z,0.50
2022-07-26T12:36:48.909Z,0.30
2022-07-26T12:39:22.631Z,0.47
2022-07-26T12:41:54.091Z,0.60
2022-07-26T12:44:22.988Z,0.50
2022-07-26T12:46:50.553Z,0.50
2022-07-26T12:49:18.280Z,0.45
2022-07-26T12:51:45.892Z,0.32
2022-07-26T12:54:14.138Z,0.40
2022-07-26T12:56:41.895Z,0.47
2022-07-26T12:59:12.232Z,0.45
2022-07-26T13:01:45.681Z,0.40
2022-07-26T13:04:13.605Z,0.57
2022-07-26T13:06:41.351Z,0.40
2022-07-26T13:09:08.920Z,0.40
2022-07-26T13:11:36.837Z,0.55
2022-07-26T13:14:04.440Z,0.50
2022-07-26T13:16:32.146Z,0.47
2022-07-26T13:18:59.772Z,0.47
2022-07-26T13:21:33.231Z,0.45
2022-07-26T13:24:01.705Z,0.28
2022-07-26T13:26:29.277Z,0.47
2022-07-26T13:28:57.596Z,0.30
2022-07-26T13:31:25.201Z,0.40
2022-07-26T13:33:52.863Z,0.50
2022-07-26T13:36:20.393Z,0.40
2022-07-26T13:38:47.972Z,0.40
2022-07-26T13:41:15.508Z,0.30
2022-07-26T13:43:43.192Z,0.30
2022-07-26T13:46:10.778Z,0.30
2022-07-26T13:48:48.101Z,0.40
2022-07-26T13:51:48.489Z,0.40
2022-07-26T13:54:18.182Z,0.30
2022-07-26T13:56:46.769Z,0.30
2022-07-26T13:59:15.247Z,0.30
2022-07-26T14:01:45.168Z,0.40
2022-07-26T14:04:13.838Z,0.30
2022-07-26T14:06:42.520Z,0.30
2022-07-26T14:09:11.142Z,0.30
2022-07-26T14:11:39.331Z,0.43
2022-07-26T14:14:07.743Z,0.40
2022-07-26T14:16:35.844Z,0.20
2022-07-26T14:19:03.978Z,0.40
2022-07-26T14:21:38.737Z,0.35
2022-07-26T14:24:16.580Z,0.30
2022-07-26T14:26:46.592Z,0.38
2022-07-26T14:29:15.213Z,0.40
2022-07-26T14:31:42.990Z,0.40
2022-07-26T14:34:11.262Z,0.70
2022-07-26T14:36:39.090Z,0.50
2022-07-26T14:39:06.550Z,0.60
2022-07-26T14:41:34.155Z,0.45
2022-07-26T14:44:02.271Z,0.50
2022-07-26T14:46:29.975Z,0.52
2022-07-26T14:48:57.605Z,0.43
2022-07-26T14:51:25.635Z,0.50
2022-07-26T14:53:53.238Z,0.57
2022-07-26T14:56:21.043Z,0.43
2022-07-26T14:58:48.534Z,0.43
2022-07-26T15:01:16.736Z,0.50
2022-07-26T15:03:44.414Z,0.60
2022-07-26T15:06:12.009Z,0.50
2022-07-26T15:08:39.565Z,0.50
2022-07-26T15:11:07.235Z,0.68
2022-07-26T15:13:35.462Z,0.82
2022-07-26T15:16:03.143Z,1.02
2022-07-26T15:18:31.579Z,0.60
2022-07-26T15:20:59.186Z,0.60
2022-07-26T15:23:26.771Z,0.80
2022-07-26T15:25:54.604Z,0.82
2022-07-26T15:28:22.131Z,0.65
2022-07-26T15:30:50.279Z,0.57
2022-07-26T15:33:20.141Z,0.98
2022-07-26T15:35:47.790Z,0.60
2022-07-26T15:38:15.309Z,0.57
2022-07-26T15:40:42.925Z,0.40
2022-07-26T15:43:10.445Z,0.60
2022-07-26T15:45:41.013Z,0.40
2022-07-26T15:48:17.030Z,0.50
2022-07-26T15:50:49.690Z,0.60
2022-07-26T15:53:17.351Z,0.40
2022-07-26T15:55:45.018Z,0.45
2022-07-26T15:58:13.353Z,0.57
2022-07-26T16:00:41.178Z,0.70
2022-07-26T16:03:08.867Z,0.45
2022-07-26T16:05:36.367Z,0.50
2022-07-26T16:08:04.127Z,0.60
2022-07-26T16:10:31.862Z,0.50
2022-07-26T16:12:59.778Z,0.40
2022-07-26T16:15:27.432Z,0.57
2022-07-26T16:17:55.021Z,0.50
2022-07-26T16:20:22.823Z,0.43
2022-07-26T16:22:50.514Z,0.60
2022-07-26T16:25:18.025Z,0.52
2022-07-26T16:27:45.876Z,0.70
2022-07-26T16:30:15.392Z,0.60
2022-07-26T16:32:44.297Z,0.70
2022-07-26T16:35:12.333Z,0.90
2022-07-26T16:37:40.008Z,0.50
2022-07-26T16:40:08.569Z,0.57
2022-07-26T16:42:36.414Z,0.77
2022-07-26T16:45:04.570Z,0.70
2022-07-26T16:47:32.292Z,0.50
2022-07-26T16:49:59.817Z,0.70
2022-07-26T16:52:27.400Z,0.77
2022-07-26T16:54:54.939Z,0.57
2022-07-26T16:57:22.793Z,0.88
2022-07-26T16:59:50.538Z,0.80
2022-07-26T17:02:18.303Z,0.70
2022-07-26T17:04:45.966Z,0.98
2022-07-26T17:07:29.115Z,0.80
2022-07-26T17:09:56.929Z,0.90
2022-07-26T17:12:24.962Z,0.57
2022-07-26T17:14:52.758Z,0.90
2022-07-26T17:17:20.433Z,0.90
2022-07-26T17:19:48.458Z,0.70
2022-07-26T17:22:17.058Z,0.52
2022-07-26T17:24:44.993Z,0.57
2022-07-26T17:27:12.773Z,0.60
2022-07-26T17:29:40.463Z,0.68
2022-07-26T17:32:08.897Z,0.85
2022-07-26T17:34:37.538Z,0.60
2022-07-26T17:37:07.049Z,0.60
2022-07-26T17:39:50.932Z,0.50
2022-07-26T17:42:22.089Z,0.73
2022-07-26T17:44:50.629Z,0.50
2022-07-26T17:47:29.073Z,0.60
2022-07-26T17:50:34.008Z,0.45
2022-07-26T17:52:54.092Z,0.43
2022-07-26T17:55:22.031Z,0.50
2022-07-26T17:57:51.052Z,0.50
2022-07-26T18:00:22.823Z,0.60
2022-07-26T18:02:50.411Z,0.60
2022-07-26T18:05:19.812Z,0.70
2022-07-26T18:07:47.709Z,0.60
2022-07-26T18:10:15.256Z,0.90
2022-07-26T18:12:42.954Z,0.73
2022-07-26T18:15:10.791Z,1.10
2022-07-26T18:17:38.803Z,0.68
2022-07-26T18:20:06.997Z,0.85
2022-07-26T18:22:34.697Z,0.90
2022-07-26T18:25:02.297Z,0.75
2022-07-26T18:27:30.269Z,0.80
2022-07-26T18:29:58.270Z,0.60
2022-07-26T18:32:26.958Z,0.80
2022-07-26T18:34:55.365Z,0.60
2022-07-26T18:37:23.106Z,0.98
2022-07-26T18:39:55.407Z,0.80
2022-07-26T18:42:27.009Z,0.70
2022-07-26T18:44:54.574Z,0.70
2022-07-26T18:47:22.596Z,0.90
2022-07-26T18:49:50.326Z,0.70
2022-07-26T18:52:28.397Z,0.70
2022-07-26T18:55:08.330Z,0.82
2022-07-26T18:57:37.247Z,0.80
2022-07-26T19:00:10.617Z,0.80
2022-07-26T19:02:38.264Z,0.70
2022-07-26T19:05:06.300Z,0.55
2022-07-26T19:07:34.232Z,0.60
2022-07-26T19:10:01.923Z,0.70
2022-07-26T19:12:29.534Z,0.70
2022-07-26T19:14:59.869Z,0.80
2022-07-26T19:17:30.044Z,0.80
2022-07-26T19:19:58.049Z,0.90
2022-07-26T19:22:26.268Z,0.73
2022-07-26T19:24:53.830Z,0.80
2022-07-26T19:27:21.481Z,0.70
2022-07-26T19:29:49.105Z,0.68
2022-07-26T19:32:16.740Z,0.85
2022-07-26T19:34:44.321Z,0.80
2022-07-26T19:37:12.306Z,0.73
2022-07-26T19:39:39.999Z,0.63
2022-07-26T19:42:07.556Z,0.70
2022-07-26T19:44:36.441Z,0.57
2022-07-26T19:47:04.072Z,0.80
2022-07-26T19:49:31.733Z,0.50
2022-07-26T19:51:59.848Z,0.70
2022-07-26T19:54:28.388Z,0.60
2022-07-26T19:56:55.901Z,0.90
2022-07-26T19:59:24.394Z,0.52
2022-07-26T20:01:55.228Z,0.77
2022-07-26T20:04:25.891Z,0.70
2022-07-26T20:06:53.454Z,0.60
2022-07-26T20:09:21.048Z,0.50
2022-07-26T20:11:51.104Z,0.50
2022-07-26T20:14:19.802Z,0.80
2022-07-26T20:16:51.707Z,0.70
2022-07-26T20:19:24.330Z,0.70
2022-07-26T20:21:51.900Z,0.70
2022-07-26T20:24:19.667Z,0.60
2022-07-26T20:26:47.806Z,0.60
2022-07-26T20:29:15.635Z,0.77
2022-07-26T20:31:43.330Z,0.60
2022-07-26T20:34:11.047Z,0.60
2022-07-26T20:36:38.842Z,0.70
2022-07-26T20:39:06.466Z,0.80
2022-07-26T20:41:34.506Z,0.93
2022-07-26T20:44:02.069Z,0.68
2022-07-26T20:46:29.656Z,0.50
2022-07-26T20:48:57.449Z,0.80
2022-07-26T20:51:25.463Z,0.90
2022-07-26T20:53:53.072Z,0.95
2022-07-26T20:56:20.623Z,0.88
2022-07-26T20:58:48.128Z,0.43
2022-07-26T21:01:15.834Z,0.70
2022-07-26T21:03:43.431Z,0.63
2022-07-26T21:06:10.998Z,0.85
2022-07-26T21:08:38.548Z,0.57
2022-07-26T21:11:06.138Z,0.90
2022-07-26T21:13:34.276Z,0.80
2022-07-26T21:16:02.047Z,0.80
2022-07-26T21:18:29.994Z,0.70
2022-07-26T21:20:58.976Z,0.82
2022-07-26T21:23:26.467Z,0.73
2022-07-26T21:25:58.071Z,0.82
2022-07-26T21:28:28.933Z,0.63
2022-07-26T21:30:56.590Z,0.80
2022-07-26T21:33:24.210Z,0.60
2022-07-26T21:35:51.813Z,0.73
2022-07-26T21:38:19.620Z,0.82
2022-07-26T21:40:47.611Z,0.90
2022-07-26T21:43:15.222Z,0.90
2022-07-26T21:45:42.938Z,0.95
2022-07-26T21:48:10.680Z,0.70
2022-07-26T21:50:38.279Z,0.65
2022-07-26T21:53:05.915Z,0.80
2022-07-26T21:55:33.463Z,0.70
2022-07-26T21:58:01.073Z,0.60
2022-07-26T22:00:28.687Z,0.70
2022-07-26T22:02:56.254Z,0.50
2022-07-26T22:05:37.996Z,0.80
2022-07-26T22:08:11.340Z,0.82
2022-07-26T22:10:44.152Z,0.70
2022-07-26T22:13:14.206Z,0.68
2022-07-26T22:15:42.602Z,1.33
2022-07-26T22:18:10.227Z,0.88
2022-07-26T22:20:38.576Z,0.90
2022-07-26T22:23:08.450Z,1.10
2022-07-26T22:25:36.862Z,0.95
2022-07-26T22:28:06.213Z,1.13
2022-07-26T22:30:33.934Z,0.95
2022-07-26T22:33:03.602Z,1.10
2022-07-26T22:35:36.263Z,2.08
2022-07-26T22:38:09.990Z,1.50
2022-07-26T22:40:39.332Z,1.60
2022-07-26T22:43:07.462Z,1.50
2022-07-26T22:45:35.257Z,1.50
2022-07-26T22:48:04.206Z,1.15
2022-07-26T22:50:32.497Z,0.95
2022-07-26T22:53:01.121Z,1.50
2022-07-26T22:55:29.180Z,1.30
2022-07-26T22:57:56.978Z,1.27
2022-07-26T23:00:24.935Z,1.00
2022-07-26T23:02:52.560Z,0.82
2022-07-26T23:05:20.573Z,1.10
2022-07-26T23:07:48.981Z,1.10
2022-07-26T23:10:17.742Z,1.00
2022-07-26T23:12:45.577Z,0.88
2022-07-26T23:15:13.444Z,1.10
2022-07-26T23:17:41.075Z,1.10
2022-07-26T23:20:10.518Z,0.90
2022-07-26T23:22:38.691Z,0.70
2022-07-26T23:25:06.681Z,0.80
2022-07-26T23:27:34.241Z,0.90
2022-07-26T23:30:01.998Z,1.00
2022-07-26T23:32:29.590Z,0.80
2022-07-26T23:34:57.214Z,0.80
2022-07-26T23:37:24.737Z,1.05
2022-07-26T23:39:52.333Z,1.20
2022-07-26T23:42:19.840Z,0.80
2022-07-26T23:44:47.387Z,1.08
2022-07-26T23:47:15.079Z,0.82
2022-07-26T23:49:42.753Z,1.10
2022-07-26T23:52:10.284Z,1.10
2022-07-26T23:54:38.112Z,0.80
2022-07-26T23:57:05.667Z,0.80
2022-07-26T23:59:33.281Z,0.90
